sensor_id;sensor_type;location;lat;lon;timestamp;pressure;altitude;pressure_sealevel;temperature;humidity
21904;BME280;11116;51.554;7.812;2022-08-19T00:00:50;100436.31;;;15.99;100.00
21904;BME280;11116;51.554;7.812;2022-08-19T00:03:17;100450.31;;;15.85;100.00
21904;BME280;11116;51.554;7.812;2022-08-19T00:05:44;100451.63;;;15.89;100.00
21904;BME280;11116;51.554;7.812;2022-08-19T00:08:11;100461.78;;;15.85;100.00
21904;BME280;11116;51.554;7.812;2022-08-19T00:10:37;100473.59;;;15.82;100.00
21904;BME280;11116;51.554;7.812;2022-08-19T00:13:05;100474.59;;;15.90;100.00
21904;BME280;11116;51.554;7.812;2022-08-19T00:15:32;100470.63;;;16.02;100.00
21904;BME280;11116;51.554;7.812;2022-08-19T00:17:59;100471.94;;;15.90;100.00
21904;BME280;11116;51.554;7.812;2022-08-19T00:20:26;100474.44;;;15.83;100.00
21904;BME280;11116;51.554;7.812;2022-08-19T00:22:53;100480.22;;;15.70;100.00
21904;BME280;11116;51.554;7.812;2022-08-19T00:25:21;100475.59;;;15.80;100.00
21904;BME280;11116;51.554;7.812;2022-08-19T00:27:48;100472.59;;;15.75;100.00
21904;BME280;11116;51.554;7.812;2022-08-19T00:30:16;100469.09;;;15.83;100.00
21904;BME280;11116;51.554;7.812;2022-08-19T00:32:43;100473.91;;;15.88;100.00
21904;BME280;11116;51.554;7.812;2022-08-19T00:35:10;100475.28;;;15.83;100.00
21904;BME280;11116;51.554;7.812;2022-08-19T00:37:37;100462.94;;;15.82;100.00
21904;BME280;11116;51.554;7.812;2022-08-19T00:40:09;100467.28;;;15.75;100.00
21904;BME280;11116;51.554;7.812;2022-08-19T00:42:36;100466.25;;;15.68;100.00
21904;BME280;11116;51.554;7.812;2022-08-19T00:45:09;100461.59;;;15.54;100.00
21904;BME280;11116;51.554;7.812;2022-08-19T00:47:38;100456.03;;;15.32;100.00
21904;BME280;11116;51.554;7.812;2022-08-19T00:50:06;100452.44;;;15.07;100.00
21904;BME280;11116;51.554;7.812;2022-08-19T00:52:38;100457.09;;;15.05;100.00
21904;BME280;11116;51.554;7.812;2022-08-19T00:55:08;100460.06;;;14.94;100.00
21904;BME280;11116;51.554;7.812;2022-08-19T00:57:40;100468.88;;;14.94;100.00
21904;BME280;11116;51.554;7.812;2022-08-19T01:00:11;100474.19;;;14.94;100.00
21904;BME280;11116;51.554;7.812;2022-08-19T01:02:40;100468.69;;;14.96;100.00
21904;BME280;11116;51.554;7.812;2022-08-19T01:05:09;100460.19;;;14.92;100.00
21904;BME280;11116;51.554;7.812;2022-08-19T01:07:38;100465.69;;;14.91;100.00
21904;BME280;11116;51.554;7.812;2022-08-19T01:10:09;100467.53;;;14.98;100.00
21904;BME280;11116;51.554;7.812;2022-08-19T01:12:37;100469.56;;;15.04;100.00
21904;BME280;11116;51.554;7.812;2022-08-19T01:15:05;100472.56;;;15.09;100.00
21904;BME280;11116;51.554;7.812;2022-08-19T01:17:33;100478.91;;;15.08;100.00
21904;BME280;11116;51.554;7.812;2022-08-19T01:20:03;100470.28;;;15.14;100.00
21904;BME280;11116;51.554;7.812;2022-08-19T01:22:35;100469.97;;;15.25;100.00
21904;BME280;11116;51.554;7.812;2022-08-19T01:25:04;100472.28;;;15.20;100.00
21904;BME280;11116;51.554;7.812;2022-08-19T01:27:37;100460.97;;;15.26;100.00
21904;BME280;11116;51.554;7.812;2022-08-19T01:30:05;100467.13;;;15.19;100.00
21904;BME280;11116;51.554;7.812;2022-08-19T01:32:32;100468.59;;;15.13;100.00
21904;BME280;11116;51.554;7.812;2022-08-19T01:35:00;100469.03;;;15.01;100.00
21904;BME280;11116;51.554;7.812;2022-08-19T01:37:28;100461.44;;;15.06;100.00
21904;BME280;11116;51.554;7.812;2022-08-19T01:39:56;100458.06;;;15.04;100.00
21904;BME280;11116;51.554;7.812;2022-08-19T01:42:24;100455.63;;;15.18;100.00
21904;BME280;11116;51.554;7.812;2022-08-19T01:44:50;100447.50;;;15.12;100.00
21904;BME280;11116;51.554;7.812;2022-08-19T01:47:17;100457.75;;;14.99;100.00
21904;BME280;11116;51.554;7.812;2022-08-19T01:49:44;100451.13;;;15.03;100.00
21904;BME280;11116;51.554;7.812;2022-08-19T01:52:11;100453.44;;;15.06;100.00
21904;BME280;11116;51.554;7.812;2022-08-19T01:54:38;100451.25;;;15.01;100.00
21904;BME280;11116;51.554;7.812;2022-08-19T01:57:10;100450.25;;;14.94;100.00
21904;BME280;11116;51.554;7.812;2022-08-19T01:59:37;100444.75;;;14.96;100.00
21904;BME280;11116;51.554;7.812;2022-08-19T02:02:06;100445.59;;;14.96;100.00
21904;BME280;11116;51.554;7.812;2022-08-19T02:04:33;100445.06;;;14.85;100.00
21904;BME280;11116;51.554;7.812;2022-08-19T02:07:00;100451.03;;;14.87;100.00
21904;BME280;11116;51.554;7.812;2022-08-19T02:09:27;100440.59;;;14.93;100.00
21904;BME280;11116;51.554;7.812;2022-08-19T02:11:54;100439.13;;;14.99;100.00
21904;BME280;11116;51.554;7.812;2022-08-19T02:14:22;100440.97;;;15.06;100.00
21904;BME280;11116;51.554;7.812;2022-08-19T02:16:49;100445.94;;;15.01;100.00
21904;BME280;11116;51.554;7.812;2022-08-19T02:19:15;100439.50;;;15.12;100.00
21904;BME280;11116;51.554;7.812;2022-08-19T02:21:42;100437.16;;;15.09;100.00
21904;BME280;11116;51.554;7.812;2022-08-19T02:24:09;100440.16;;;15.14;100.00
21904;BME280;11116;51.554;7.812;2022-08-19T02:26:37;100447.28;;;15.05;100.00
21904;BME280;11116;51.554;7.812;2022-08-19T02:29:04;100450.78;;;15.06;100.00
21904;BME280;11116;51.554;7.812;2022-08-19T02:31:32;100451.47;;;15.08;100.00
21904;BME280;11116;51.554;7.812;2022-08-19T02:33:59;100463.25;;;15.05;100.00
21904;BME280;11116;51.554;7.812;2022-08-19T02:36:26;100441.78;;;15.07;100.00
21904;BME280;11116;51.554;7.812;2022-08-19T02:38:53;100437.50;;;15.14;100.00
21904;BME280;11116;51.554;7.812;2022-08-19T02:41:24;100439.34;;;15.13;100.00
21904;BME280;11116;51.554;7.812;2022-08-19T02:43:51;100434.31;;;15.02;100.00
21904;BME280;11116;51.554;7.812;2022-08-19T02:46:19;100433.13;;;14.97;100.00
21904;BME280;11116;51.554;7.812;2022-08-19T02:48:49;100437.81;;;15.03;100.00
21904;BME280;11116;51.554;7.812;2022-08-19T02:51:17;100437.00;;;15.18;100.00
21904;BME280;11116;51.554;7.812;2022-08-19T02:53:45;100440.38;;;15.28;100.00
21904;BME280;11116;51.554;7.812;2022-08-19T02:56:11;100447.72;;;15.35;100.00
21904;BME280;11116;51.554;7.812;2022-08-19T02:58:38;100436.13;;;15.52;100.00
21904;BME280;11116;51.554;7.812;2022-08-19T03:01:05;100435.72;;;15.39;100.00
21904;BME280;11116;51.554;7.812;2022-08-19T03:03:32;100433.72;;;15.33;100.00
21904;BME280;11116;51.554;7.812;2022-08-19T03:06:06;100433.88;;;15.23;100.00
21904;BME280;11116;51.554;7.812;2022-08-19T03:08:33;100421.84;;;15.03;100.00
21904;BME280;11116;51.554;7.812;2022-08-19T03:11:00;100426.94;;;14.88;100.00
21904;BME280;11116;51.554;7.812;2022-08-19T03:13:27;100432.41;;;14.87;100.00
21904;BME280;11116;51.554;7.812;2022-08-19T03:15:54;100431.75;;;14.85;100.00
21904;BME280;11116;51.554;7.812;2022-08-19T03:18:21;100447.84;;;14.83;100.00
21904;BME280;11116;51.554;7.812;2022-08-19T03:20:51;100448.38;;;14.87;100.00
21904;BME280;11116;51.554;7.812;2022-08-19T03:23:21;100449.22;;;14.87;100.00
21904;BME280;11116;51.554;7.812;2022-08-19T03:25:50;100447.38;;;14.80;100.00
21904;BME280;11116;51.554;7.812;2022-08-19T03:28:17;100439.84;;;14.75;100.00
21904;BME280;11116;51.554;7.812;2022-08-19T03:30:55;100455.66;;;14.77;100.00
21904;BME280;11116;51.554;7.812;2022-08-19T03:33:22;100453.28;;;14.65;100.00
21904;BME280;11116;51.554;7.812;2022-08-19T03:36:00;100456.56;;;14.59;100.00
21904;BME280;11116;51.554;7.812;2022-08-19T03:38:28;100460.31;;;14.49;100.00
21904;BME280;11116;51.554;7.812;2022-08-19T03:40:55;100461.94;;;14.42;100.00
21904;BME280;11116;51.554;7.812;2022-08-19T03:43:21;100465.47;;;14.50;100.00
21904;BME280;11116;51.554;7.812;2022-08-19T03:45:48;100461.00;;;14.51;100.00
21904;BME280;11116;51.554;7.812;2022-08-19T03:48:16;100464.66;;;14.50;100.00
21904;BME280;11116;51.554;7.812;2022-08-19T03:50:43;100470.94;;;14.49;100.00
21904;BME280;11116;51.554;7.812;2022-08-19T03:53:10;100470.09;;;14.48;100.00
21904;BME280;11116;51.554;7.812;2022-08-19T03:55:40;100469.91;;;14.42;100.00
21904;BME280;11116;51.554;7.812;2022-08-19T03:58:07;100475.00;;;14.35;100.00
21904;BME280;11116;51.554;7.812;2022-08-19T04:00:36;100477.97;;;14.32;100.00
21904;BME280;11116;51.554;7.812;2022-08-19T04:03:02;100483.28;;;14.32;100.00
21904;BME280;11116;51.554;7.812;2022-08-19T04:05:29;100483.34;;;14.23;100.00
21904;BME280;11116;51.554;7.812;2022-08-19T04:07:56;100470.53;;;14.36;100.00
21904;BME280;11116;51.554;7.812;2022-08-19T04:10:24;100477.00;;;14.33;100.00
21904;BME280;11116;51.554;7.812;2022-08-19T04:12:52;100486.63;;;14.34;100.00
21904;BME280;11116;51.554;7.812;2022-08-19T04:15:19;100493.22;;;14.30;100.00
21904;BME280;11116;51.554;7.812;2022-08-19T04:17:46;100492.63;;;14.36;100.00
21904;BME280;11116;51.554;7.812;2022-08-19T04:20:13;100491.25;;;14.32;100.00
21904;BME280;11116;51.554;7.812;2022-08-19T04:22:39;100486.84;;;14.41;100.00
21904;BME280;11116;51.554;7.812;2022-08-19T04:25:06;100486.00;;;14.40;100.00
21904;BME280;11116;51.554;7.812;2022-08-19T04:27:33;100481.31;;;14.34;100.00
21904;BME280;11116;51.554;7.812;2022-08-19T04:30:02;100482.44;;;14.32;100.00
21904;BME280;11116;51.554;7.812;2022-08-19T04:32:29;100490.41;;;14.32;100.00
21904;BME280;11116;51.554;7.812;2022-08-19T04:34:57;100499.25;;;14.32;100.00
21904;BME280;11116;51.554;7.812;2022-08-19T04:37:24;100500.75;;;14.35;100.00
21904;BME280;11116;51.554;7.812;2022-08-19T04:39:52;100491.94;;;14.34;100.00
21904;BME280;11116;51.554;7.812;2022-08-19T04:42:36;100494.19;;;14.29;100.00
21904;BME280;11116;51.554;7.812;2022-08-19T04:45:10;100495.88;;;14.30;100.00
21904;BME280;11116;51.554;7.812;2022-08-19T04:47:39;100490.28;;;14.33;100.00
21904;BME280;11116;51.554;7.812;2022-08-19T04:50:07;100491.94;;;14.34;100.00
21904;BME280;11116;51.554;7.812;2022-08-19T04:52:35;100498.69;;;14.29;100.00
21904;BME280;11116;51.554;7.812;2022-08-19T04:55:02;100501.50;;;14.27;100.00
21904;BME280;11116;51.554;7.812;2022-08-19T04:57:31;100498.63;;;14.21;100.00
21904;BME280;11116;51.554;7.812;2022-08-19T04:59:58;100496.13;;;14.19;100.00
21904;BME280;11116;51.554;7.812;2022-08-19T05:02:26;100502.34;;;14.28;100.00
21904;BME280;11116;51.554;7.812;2022-08-19T05:04:56;100498.16;;;14.25;100.00
21904;BME280;11116;51.554;7.812;2022-08-19T05:07:24;100497.94;;;14.36;100.00
21904;BME280;11116;51.554;7.812;2022-08-19T05:09:51;100505.72;;;14.55;100.00
21904;BME280;11116;51.554;7.812;2022-08-19T05:12:18;100510.72;;;14.58;100.00
21904;BME280;11116;51.554;7.812;2022-08-19T05:14:46;100510.75;;;14.66;100.00
21904;BME280;11116;51.554;7.812;2022-08-19T05:17:13;100507.88;;;14.60;100.00
21904;BME280;11116;51.554;7.812;2022-08-19T05:19:41;100507.53;;;14.55;100.00
21904;BME280;11116;51.554;7.812;2022-08-19T05:22:26;100506.69;;;14.54;100.00
21904;BME280;11116;51.554;7.812;2022-08-19T05:25:03;100510.34;;;14.53;100.00
21904;BME280;11116;51.554;7.812;2022-08-19T05:27:30;100512.78;;;14.47;100.00
21904;BME280;11116;51.554;7.812;2022-08-19T05:29:57;100510.66;;;14.50;100.00
21904;BME280;11116;51.554;7.812;2022-08-19T05:32:24;100515.38;;;14.56;100.00
21904;BME280;11116;51.554;7.812;2022-08-19T05:34:53;100520.56;;;14.66;100.00
21904;BME280;11116;51.554;7.812;2022-08-19T05:37:20;100522.44;;;14.74;100.00
21904;BME280;11116;51.554;7.812;2022-08-19T05:39:47;100518.47;;;14.78;100.00
21904;BME280;11116;51.554;7.812;2022-08-19T05:42:15;100512.69;;;14.82;100.00
21904;BME280;11116;51.554;7.812;2022-08-19T05:44:43;100508.88;;;14.85;100.00
21904;BME280;11116;51.554;7.812;2022-08-19T05:47:12;100511.44;;;14.94;100.00
21904;BME280;11116;51.554;7.812;2022-08-19T05:49:40;100520.09;;;15.04;100.00
21904;BME280;11116;51.554;7.812;2022-08-19T05:52:13;100515.13;;;15.09;100.00
21904;BME280;11116;51.554;7.812;2022-08-19T05:54:41;100512.78;;;15.06;100.00
21904;BME280;11116;51.554;7.812;2022-08-19T05:57:08;100516.19;;;15.24;100.00
21904;BME280;11116;51.554;7.812;2022-08-19T05:59:35;100509.91;;;15.34;100.00
21904;BME280;11116;51.554;7.812;2022-08-19T06:02:03;100513.00;;;15.55;100.00
21904;BME280;11116;51.554;7.812;2022-08-19T06:04:32;100513.69;;;15.65;100.00
21904;BME280;11116;51.554;7.812;2022-08-19T06:06:58;100493.75;;;15.93;100.00
21904;BME280;11116;51.554;7.812;2022-08-19T06:09:28;100499.22;;;16.32;100.00
21904;BME280;11116;51.554;7.812;2022-08-19T06:11:57;100492.53;;;16.52;100.00
21904;BME280;11116;51.554;7.812;2022-08-19T06:14:26;100488.69;;;16.79;100.00
21904;BME280;11116;51.554;7.812;2022-08-19T06:16:53;100478.78;;;16.95;100.00
21904;BME280;11116;51.554;7.812;2022-08-19T06:19:21;100475.53;;;16.77;100.00
21904;BME280;11116;51.554;7.812;2022-08-19T06:21:51;100479.13;;;17.01;100.00
21904;BME280;11116;51.554;7.812;2022-08-19T06:24:20;100473.25;;;17.36;100.00
21904;BME280;11116;51.554;7.812;2022-08-19T06:26:51;100469.81;;;17.58;100.00
21904;BME280;11116;51.554;7.812;2022-08-19T06:29:19;100466.09;;;17.90;100.00
21904;BME280;11116;51.554;7.812;2022-08-19T06:31:48;100461.16;;;18.01;100.00
21904;BME280;11116;51.554;7.812;2022-08-19T06:34:16;100452.75;;;18.04;100.00
21904;BME280;11116;51.554;7.812;2022-08-19T06:36:45;100456.56;;;18.10;100.00
21904;BME280;11116;51.554;7.812;2022-08-19T06:39:14;100453.69;;;18.12;100.00
21904;BME280;11116;51.554;7.812;2022-08-19T06:41:43;100450.69;;;18.29;100.00
21904;BME280;11116;51.554;7.812;2022-08-19T06:44:18;100449.00;;;18.66;100.00
21904;BME280;11116;51.554;7.812;2022-08-19T06:46:45;100447.22;;;19.02;100.00
21904;BME280;11116;51.554;7.812;2022-08-19T06:49:12;100445.31;;;19.32;100.00
21904;BME280;11116;51.554;7.812;2022-08-19T06:51:41;100445.19;;;19.54;100.00
21904;BME280;11116;51.554;7.812;2022-08-19T06:54:09;100447.69;;;19.56;100.00
21904;BME280;11116;51.554;7.812;2022-08-19T06:56:37;100457.22;;;19.65;100.00
21904;BME280;11116;51.554;7.812;2022-08-19T06:59:06;100455.06;;;19.75;100.00
21904;BME280;11116;51.554;7.812;2022-08-19T07:01:42;100443.75;;;20.01;100.00
21904;BME280;11116;51.554;7.812;2022-08-19T07:04:13;100448.34;;;20.07;100.00
21904;BME280;11116;51.554;7.812;2022-08-19T07:06:41;100445.06;;;20.33;100.00
21904;BME280;11116;51.554;7.812;2022-08-19T07:09:10;100447.38;;;20.70;100.00
21904;BME280;11116;51.554;7.812;2022-08-19T07:11:37;100445.38;;;21.13;100.00
21904;BME280;11116;51.554;7.812;2022-08-19T07:14:03;100453.53;;;21.05;100.00
21904;BME280;11116;51.554;7.812;2022-08-19T07:16:32;100452.03;;;20.96;100.00
21904;BME280;11116;51.554;7.812;2022-08-19T07:19:00;100444.13;;;20.81;100.00
21904;BME280;11116;51.554;7.812;2022-08-19T07:21:28;100452.16;;;20.74;100.00
21904;BME280;11116;51.554;7.812;2022-08-19T07:23:56;100453.13;;;21.01;100.00
21904;BME280;11116;51.554;7.812;2022-08-19T07:26:27;100459.66;;;20.85;100.00
21904;BME280;11116;51.554;7.812;2022-08-19T07:28:56;100460.06;;;20.82;100.00
21904;BME280;11116;51.554;7.812;2022-08-19T07:31:25;100470.31;;;21.07;100.00
21904;BME280;11116;51.554;7.812;2022-08-19T07:33:54;100468.06;;;21.10;100.00
21904;BME280;11116;51.554;7.812;2022-08-19T07:36:24;100473.31;;;21.31;100.00
21904;BME280;11116;51.554;7.812;2022-08-19T07:38:59;100465.13;;;21.66;99.23
21904;BME280;11116;51.554;7.812;2022-08-19T07:41:27;100474.13;;;21.99;97.69
21904;BME280;11116;51.554;7.812;2022-08-19T07:43:57;100470.75;;;21.84;95.67
21904;BME280;11116;51.554;7.812;2022-08-19T07:46:23;100476.38;;;21.89;94.79
21904;BME280;11116;51.554;7.812;2022-08-19T07:48:52;100464.78;;;22.41;94.66
21904;BME280;11116;51.554;7.812;2022-08-19T07:51:20;100468.72;;;22.45;92.33
21904;BME280;11116;51.554;7.812;2022-08-19T07:53:49;100469.75;;;22.64;90.57
21904;BME280;11116;51.554;7.812;2022-08-19T07:56:17;100480.09;;;22.80;90.35
21904;BME280;11116;51.554;7.812;2022-08-19T07:58:46;100491.66;;;22.93;88.68
21904;BME280;11116;51.554;7.812;2022-08-19T08:01:15;100479.31;;;23.24;88.43
21904;BME280;11116;51.554;7.812;2022-08-19T08:03:42;100487.78;;;23.34;87.67
21904;BME280;11116;51.554;7.812;2022-08-19T08:06:27;100486.13;;;23.33;86.87
21904;BME280;11116;51.554;7.812;2022-08-19T08:09:14;100478.06;;;22.69;87.49
21904;BME280;11116;51.554;7.812;2022-08-19T08:11:49;100490.63;;;23.01;87.86
21904;BME280;11116;51.554;7.812;2022-08-19T08:14:18;100482.56;;;22.88;87.98
21904;BME280;11116;51.554;7.812;2022-08-19T08:16:45;100481.91;;;22.99;86.83
21904;BME280;11116;51.554;7.812;2022-08-19T08:19:13;100487.69;;;22.96;87.41
21904;BME280;11116;51.554;7.812;2022-08-19T08:21:41;100483.84;;;23.36;87.05
21904;BME280;11116;51.554;7.812;2022-08-19T08:24:09;100484.03;;;23.35;86.24
21904;BME280;11116;51.554;7.812;2022-08-19T08:26:37;100483.06;;;23.23;86.26
21904;BME280;11116;51.554;7.812;2022-08-19T08:29:04;100489.28;;;23.23;87.19
21904;BME280;11116;51.554;7.812;2022-08-19T08:31:33;100494.19;;;23.46;86.20
21904;BME280;11116;51.554;7.812;2022-08-19T08:34:00;100492.72;;;23.50;84.71
21904;BME280;11116;51.554;7.812;2022-08-19T08:36:27;100491.59;;;23.64;85.42
21904;BME280;11116;51.554;7.812;2022-08-19T08:38:54;100480.41;;;23.60;86.09
21904;BME280;11116;51.554;7.812;2022-08-19T08:41:28;100492.16;;;23.73;85.93
21904;BME280;11116;51.554;7.812;2022-08-19T08:43:59;100482.72;;;23.57;83.26
21904;BME280;11116;51.554;7.812;2022-08-19T08:46:36;100500.16;;;23.54;83.92
21904;BME280;11116;51.554;7.812;2022-08-19T08:49:13;100497.31;;;23.36;85.63
21904;BME280;11116;51.554;7.812;2022-08-19T08:51:47;100501.91;;;23.29;86.98
21904;BME280;11116;51.554;7.812;2022-08-19T08:54:20;100496.88;;;23.46;85.40
21904;BME280;11116;51.554;7.812;2022-08-19T08:56:49;100490.00;;;23.88;83.62
21904;BME280;11116;51.554;7.812;2022-08-19T08:59:22;100496.41;;;23.93;83.02
21904;BME280;11116;51.554;7.812;2022-08-19T09:01:52;100500.38;;;24.22;81.62
21904;BME280;11116;51.554;7.812;2022-08-19T09:04:19;100487.66;;;24.29;80.72
21904;BME280;11116;51.554;7.812;2022-08-19T09:06:51;100486.25;;;25.06;79.11
21904;BME280;11116;51.554;7.812;2022-08-19T09:09:26;100481.75;;;25.18;76.65
21904;BME280;11116;51.554;7.812;2022-08-19T09:12:04;100479.38;;;25.10;77.29
21904;BME280;11116;51.554;7.812;2022-08-19T09:14:41;100497.88;;;24.45;79.25
21904;BME280;11116;51.554;7.812;2022-08-19T09:17:11;100492.53;;;24.39;79.82
21904;BME280;11116;51.554;7.812;2022-08-19T09:19:49;100496.06;;;24.14;80.96
21904;BME280;11116;51.554;7.812;2022-08-19T09:22:17;100489.13;;;24.68;79.21
21904;BME280;11116;51.554;7.812;2022-08-19T09:24:47;100485.28;;;24.82;76.68
21904;BME280;11116;51.554;7.812;2022-08-19T09:27:14;100481.69;;;24.88;76.80
21904;BME280;11116;51.554;7.812;2022-08-19T09:29:42;100478.41;;;25.34;75.61
21904;BME280;11116;51.554;7.812;2022-08-19T09:32:09;100477.47;;;25.28;75.01
21904;BME280;11116;51.554;7.812;2022-08-19T09:34:36;100479.81;;;25.07;76.19
21904;BME280;11116;51.554;7.812;2022-08-19T09:37:02;100487.41;;;24.98;75.55
21904;BME280;11116;51.554;7.812;2022-08-19T09:39:30;100475.53;;;25.65;72.36
21904;BME280;11116;51.554;7.812;2022-08-19T09:41:57;100480.41;;;25.27;72.63
21904;BME280;11116;51.554;7.812;2022-08-19T09:44:24;100474.72;;;25.47;72.34
21904;BME280;11116;51.554;7.812;2022-08-19T09:46:52;100471.34;;;25.81;72.32
21904;BME280;11116;51.554;7.812;2022-08-19T09:49:19;100480.66;;;25.55;72.15
21904;BME280;11116;51.554;7.812;2022-08-19T09:51:49;100479.47;;;25.51;73.04
21904;BME280;11116;51.554;7.812;2022-08-19T09:54:17;100482.34;;;25.56;72.91
21904;BME280;11116;51.554;7.812;2022-08-19T09:56:44;100480.94;;;24.81;74.55
21904;BME280;11116;51.554;7.812;2022-08-19T09:59:10;100482.63;;;24.33;75.36
21904;BME280;11116;51.554;7.812;2022-08-19T10:01:37;100482.91;;;24.67;74.49
21904;BME280;11116;51.554;7.812;2022-08-19T10:04:06;100476.22;;;24.52;74.87
21904;BME280;11116;51.554;7.812;2022-08-19T10:06:36;100477.31;;;25.23;73.51
21904;BME280;11116;51.554;7.812;2022-08-19T10:09:05;100466.53;;;25.83;70.92
21904;BME280;11116;51.554;7.812;2022-08-19T10:11:33;100465.66;;;25.41;69.97
21904;BME280;11116;51.554;7.812;2022-08-19T10:14:00;100463.78;;;25.23;71.23
21904;BME280;11116;51.554;7.812;2022-08-19T10:16:27;100469.31;;;24.38;73.12
21904;BME280;11116;51.554;7.812;2022-08-19T10:18:54;100469.31;;;24.81;72.52
21904;BME280;11116;51.554;7.812;2022-08-19T10:21:25;100470.31;;;24.80;74.00
21904;BME280;11116;51.554;7.812;2022-08-19T10:23:55;100466.50;;;24.69;73.17
21904;BME280;11116;51.554;7.812;2022-08-19T10:26:24;100468.31;;;24.75;73.80
21904;BME280;11116;51.554;7.812;2022-08-19T10:28:52;100455.09;;;24.85;73.52
21904;BME280;11116;51.554;7.812;2022-08-19T10:31:21;100453.00;;;25.05;72.77
21904;BME280;11116;51.554;7.812;2022-08-19T10:33:50;100449.72;;;25.51;70.71
21904;BME280;11116;51.554;7.812;2022-08-19T10:36:26;100448.81;;;26.10;67.38
21904;BME280;11116;51.554;7.812;2022-08-19T10:38:54;100444.81;;;26.94;66.29
21904;BME280;11116;51.554;7.812;2022-08-19T10:41:26;100450.41;;;26.64;64.22
21904;BME280;11116;51.554;7.812;2022-08-19T10:43:55;100450.38;;;25.65;66.59
21904;BME280;11116;51.554;7.812;2022-08-19T10:46:25;100444.97;;;26.18;66.81
21904;BME280;11116;51.554;7.812;2022-08-19T10:48:52;100449.56;;;25.76;66.94
21904;BME280;11116;51.554;7.812;2022-08-19T10:51:20;100442.75;;;26.61;65.36
21904;BME280;11116;51.554;7.812;2022-08-19T10:54:06;100436.25;;;26.62;64.94
21904;BME280;11116;51.554;7.812;2022-08-19T10:56:33;100442.03;;;25.78;67.13
21904;BME280;11116;51.554;7.812;2022-08-19T10:59:18;100448.84;;;25.69;68.55
21904;BME280;11116;51.554;7.812;2022-08-19T11:01:46;100438.00;;;25.39;67.95
21904;BME280;11116;51.554;7.812;2022-08-19T11:04:13;100419.31;;;26.20;65.59
21904;BME280;11116;51.554;7.812;2022-08-19T11:06:43;100422.13;;;27.12;62.98
21904;BME280;11116;51.554;7.812;2022-08-19T11:09:15;100415.56;;;27.64;63.10
21904;BME280;11116;51.554;7.812;2022-08-19T11:11:42;100420.31;;;26.77;60.72
21904;BME280;11116;51.554;7.812;2022-08-19T11:14:11;100418.31;;;26.96;61.32
21904;BME280;11116;51.554;7.812;2022-08-19T11:16:38;100415.69;;;27.01;61.86
21904;BME280;11116;51.554;7.812;2022-08-19T11:19:06;100420.72;;;27.09;62.28
21904;BME280;11116;51.554;7.812;2022-08-19T11:21:37;100418.91;;;26.75;63.99
21904;BME280;11116;51.554;7.812;2022-08-19T11:24:07;100413.16;;;26.60;62.71
21904;BME280;11116;51.554;7.812;2022-08-19T11:26:36;100410.41;;;27.23;61.02
21904;BME280;11116;51.554;7.812;2022-08-19T11:29:04;100413.03;;;26.08;63.51
21904;BME280;11116;51.554;7.812;2022-08-19T11:31:33;100410.00;;;25.63;65.38
21904;BME280;11116;51.554;7.812;2022-08-19T11:34:04;100417.09;;;25.76;64.71
21904;BME280;11116;51.554;7.812;2022-08-19T11:36:31;100417.66;;;25.66;65.39
21904;BME280;11116;51.554;7.812;2022-08-19T11:38:59;100408.94;;;25.64;65.54
21904;BME280;11116;51.554;7.812;2022-08-19T11:41:26;100412.34;;;25.30;66.11
21904;BME280;11116;51.554;7.812;2022-08-19T11:43:55;100415.22;;;25.47;66.65
21904;BME280;11116;51.554;7.812;2022-08-19T11:46:24;100414.09;;;25.54;67.05
21904;BME280;11116;51.554;7.812;2022-08-19T11:48:51;100409.38;;;25.91;65.27
21904;BME280;11116;51.554;7.812;2022-08-19T11:51:21;100408.00;;;26.23;63.48
21904;BME280;11116;51.554;7.812;2022-08-19T11:53:50;100404.34;;;26.18;63.47
21904;BME280;11116;51.554;7.812;2022-08-19T11:56:18;100415.34;;;25.93;64.42
21904;BME280;11116;51.554;7.812;2022-08-19T11:58:45;100402.25;;;26.94;61.47
21904;BME280;11116;51.554;7.812;2022-08-19T12:01:16;100392.44;;;27.33;60.10
21904;BME280;11116;51.554;7.812;2022-08-19T12:03:44;100397.94;;;27.83;58.33
21904;BME280;11116;51.554;7.812;2022-08-19T12:06:15;100383.53;;;28.49;55.15
21904;BME280;11116;51.554;7.812;2022-08-19T12:08:43;100388.16;;;28.71;55.75
21904;BME280;11116;51.554;7.812;2022-08-19T12:11:12;100388.44;;;29.17;53.91
21904;BME280;11116;51.554;7.812;2022-08-19T12:13:40;100381.03;;;29.61;52.32
21904;BME280;11116;51.554;7.812;2022-08-19T12:16:15;100372.34;;;28.68;53.14
21904;BME280;11116;51.554;7.812;2022-08-19T12:18:43;100381.44;;;27.68;56.78
21904;BME280;11116;51.554;7.812;2022-08-19T12:21:12;100383.88;;;27.53;58.26
21904;BME280;11116;51.554;7.812;2022-08-19T12:23:39;100394.59;;;26.91;60.81
21904;BME280;11116;51.554;7.812;2022-08-19T12:26:08;100393.47;;;26.76;60.24
21904;BME280;11116;51.554;7.812;2022-08-19T12:28:36;100383.38;;;26.36;60.60
21904;BME280;11116;51.554;7.812;2022-08-19T12:31:04;100388.78;;;26.48;60.58
21904;BME280;11116;51.554;7.812;2022-08-19T12:33:32;100392.03;;;26.73;61.05
21904;BME280;11116;51.554;7.812;2022-08-19T12:36:01;100380.31;;;27.08;59.14
21904;BME280;11116;51.554;7.812;2022-08-19T12:38:29;100373.94;;;26.39;61.22
21904;BME280;11116;51.554;7.812;2022-08-19T12:40:58;100388.88;;;26.65;62.11
21904;BME280;11116;51.554;7.812;2022-08-19T12:43:24;100379.91;;;27.44;59.35
21904;BME280;11116;51.554;7.812;2022-08-19T12:45:51;100372.19;;;27.53;57.98
21904;BME280;11116;51.554;7.812;2022-08-19T12:48:18;100366.19;;;27.51;57.84
21904;BME280;11116;51.554;7.812;2022-08-19T12:50:47;100365.38;;;27.67;56.83